Terminal Aerodrome Forecast
Issued by NWS Wilmington, OH

Current Version | Previous Version | Graphics & Text | Print | Product List | Glossary On
Versions: 1 2 3 4 5 6 7 8 9 10 11 12 13 14 15 16 17 18 19 20 21 22 23 24 25 26
000
FTUS41 KILN 272000 AAA
TAFDAY
TAF AMD
KDAY 272000Z 2720/2818 22014G22KT P6SM SCT040
      TEMPO 2723/2801 3SM TSRA BKN035CB
     FM280100 25008KT P6SM SCT050
     FM280800 33004KT P6SM SCT250
     FM281400 08007KT P6SM FEW035=

USA.gov is the U.S. government's official web portal to all federal, state and local government web resources and services.